sensor_id;sensor_type;location;lat;lon;timestamp;P1;durP1;ratioP1;P2;durP2;ratioP2
56307;SDS011;42217;50.422;7.210;2023-07-13T00:00:14;1638.90;;;881.30;;
56307;SDS011;42217;50.422;7.210;2023-07-13T00:02:41;1999.90;;;999.90;;
56307;SDS011;42217;50.422;7.210;2023-07-13T00:05:07;1999.90;;;999.90;;
56307;SDS011;42217;50.422;7.210;2023-07-13T00:07:34;1999.90;;;999.90;;
56307;SDS011;42217;50.422;7.210;2023-07-13T00:10:00;1999.90;;;999.90;;
56307;SDS011;42217;50.422;7.210;2023-07-13T00:12:32;1999.90;;;999.90;;
56307;SDS011;42217;50.422;7.210;2023-07-13T00:15:00;1999.90;;;999.90;;
56307;SDS011;42217;50.422;7.210;2023-07-13T00:17:28;1999.90;;;999.90;;
56307;SDS011;42217;50.422;7.210;2023-07-13T00:19:54;1999.90;;;999.90;;
56307;SDS011;42217;50.422;7.210;2023-07-13T00:22:21;1999.90;;;999.90;;
56307;SDS011;42217;50.422;7.210;2023-07-13T00:24:49;1999.90;;;999.90;;
56307;SDS011;42217;50.422;7.210;2023-07-13T00:27:16;1999.90;;;999.90;;
56307;SDS011;42217;50.422;7.210;2023-07-13T00:29:42;1999.90;;;999.90;;
56307;SDS011;42217;50.422;7.210;2023-07-13T00:32:08;1999.90;;;999.90;;
56307;SDS011;42217;50.422;7.210;2023-07-13T00:34:35;1999.90;;;999.90;;
56307;SDS011;42217;50.422;7.210;2023-07-13T00:37:01;1999.90;;;999.90;;
56307;SDS011;42217;50.422;7.210;2023-07-13T00:39:27;1999.90;;;999.90;;
56307;SDS011;42217;50.422;7.210;2023-07-13T00:41:53;1999.90;;;999.90;;
56307;SDS011;42217;50.422;7.210;2023-07-13T00:44:19;1999.90;;;999.90;;
56307;SDS011;42217;50.422;7.210;2023-07-13T00:46:48;1999.90;;;999.90;;
56307;SDS011;42217;50.422;7.210;2023-07-13T00:49:15;1999.90;;;999.90;;
56307;SDS011;42217;50.422;7.210;2023-07-13T00:52:04;1999.90;;;999.90;;
56307;SDS011;42217;50.422;7.210;2023-07-13T00:54:36;1999.90;;;999.90;;
56307;SDS011;42217;50.422;7.210;2023-07-13T00:57:05;1999.90;;;999.90;;
56307;SDS011;42217;50.422;7.210;2023-07-13T00:59:34;1999.90;;;999.90;;
56307;SDS011;42217;50.422;7.210;2023-07-13T01:02:01;1999.90;;;999.90;;
56307;SDS011;42217;50.422;7.210;2023-07-13T01:04:27;1999.90;;;999.90;;
56307;SDS011;42217;50.422;7.210;2023-07-13T01:06:53;1999.90;;;999.90;;
56307;SDS011;42217;50.422;7.210;2023-07-13T01:09:19;1999.90;;;999.90;;
56307;SDS011;42217;50.422;7.210;2023-07-13T01:11:45;1999.90;;;999.90;;
56307;SDS011;42217;50.422;7.210;2023-07-13T01:14:12;1999.90;;;999.90;;
56307;SDS011;42217;50.422;7.210;2023-07-13T01:16:39;1999.90;;;999.90;;
56307;SDS011;42217;50.422;7.210;2023-07-13T01:19:13;1999.90;;;999.90;;
56307;SDS011;42217;50.422;7.210;2023-07-13T01:21:40;1999.90;;;999.90;;
56307;SDS011;42217;50.422;7.210;2023-07-13T01:24:08;1999.90;;;999.90;;
56307;SDS011;42217;50.422;7.210;2023-07-13T01:26:34;1999.90;;;999.90;;
56307;SDS011;42217;50.422;7.210;2023-07-13T01:28:59;1999.90;;;999.90;;
56307;SDS011;42217;50.422;7.210;2023-07-13T01:31:25;1999.90;;;999.90;;
56307;SDS011;42217;50.422;7.210;2023-07-13T01:33:51;1999.90;;;999.90;;
56307;SDS011;42217;50.422;7.210;2023-07-13T01:36:17;1999.90;;;999.90;;
56307;SDS011;42217;50.422;7.210;2023-07-13T01:38:42;1999.90;;;999.90;;
56307;SDS011;42217;50.422;7.210;2023-07-13T01:41:08;1999.90;;;999.90;;
56307;SDS011;42217;50.422;7.210;2023-07-13T01:43:34;1999.90;;;999.90;;
56307;SDS011;42217;50.422;7.210;2023-07-13T01:45:59;1999.90;;;999.90;;
56307;SDS011;42217;50.422;7.210;2023-07-13T01:48:25;1999.90;;;999.90;;
56307;SDS011;42217;50.422;7.210;2023-07-13T01:50:50;1999.90;;;999.90;;
56307;SDS011;42217;50.422;7.210;2023-07-13T01:53:16;1999.90;;;999.90;;
56307;SDS011;42217;50.422;7.210;2023-07-13T01:55:42;1999.90;;;999.90;;
56307;SDS011;42217;50.422;7.210;2023-07-13T01:58:07;1999.90;;;999.90;;
56307;SDS011;42217;50.422;7.210;2023-07-13T02:00:33;1999.90;;;999.90;;
56307;SDS011;42217;50.422;7.210;2023-07-13T02:02:59;1999.90;;;999.90;;
56307;SDS011;42217;50.422;7.210;2023-07-13T02:05:25;1999.90;;;999.90;;
56307;SDS011;42217;50.422;7.210;2023-07-13T02:07:50;1999.90;;;999.90;;
56307;SDS011;42217;50.422;7.210;2023-07-13T02:10:17;1999.90;;;999.90;;
56307;SDS011;42217;50.422;7.210;2023-07-13T02:12:43;1999.90;;;999.90;;
56307;SDS011;42217;50.422;7.210;2023-07-13T02:15:09;1999.90;;;999.90;;
56307;SDS011;42217;50.422;7.210;2023-07-13T02:17:35;1999.90;;;999.90;;
56307;SDS011;42217;50.422;7.210;2023-07-13T02:20:02;1999.90;;;999.90;;
56307;SDS011;42217;50.422;7.210;2023-07-13T02:22:29;1999.90;;;999.90;;
56307;SDS011;42217;50.422;7.210;2023-07-13T02:24:55;1999.90;;;999.90;;
56307;SDS011;42217;50.422;7.210;2023-07-13T02:27:21;1999.90;;;999.90;;
56307;SDS011;42217;50.422;7.210;2023-07-13T02:29:47;1999.90;;;999.90;;
56307;SDS011;42217;50.422;7.210;2023-07-13T02:32:12;1999.90;;;999.90;;
56307;SDS011;42217;50.422;7.210;2023-07-13T02:34:38;1999.90;;;999.90;;
56307;SDS011;42217;50.422;7.210;2023-07-13T02:37:05;1999.90;;;999.90;;
56307;SDS011;42217;50.422;7.210;2023-07-13T02:39:31;1999.90;;;999.90;;
56307;SDS011;42217;50.422;7.210;2023-07-13T02:41:58;1999.90;;;999.90;;
56307;SDS011;42217;50.422;7.210;2023-07-13T02:44:24;1999.90;;;999.90;;
56307;SDS011;42217;50.422;7.210;2023-07-13T02:46:50;1999.90;;;999.90;;
56307;SDS011;42217;50.422;7.210;2023-07-13T02:49:16;923.78;;;857.42;;
56307;SDS011;42217;50.422;7.210;2023-07-13T02:51:41;1491.63;;;953.95;;
56307;SDS011;42217;50.422;7.210;2023-07-13T02:54:07;1999.90;;;999.90;;
56307;SDS011;42217;50.422;7.210;2023-07-13T02:56:34;1999.90;;;999.90;;
56307;SDS011;42217;50.422;7.210;2023-07-13T02:58:59;1999.90;;;999.90;;
56307;SDS011;42217;50.422;7.210;2023-07-13T03:01:26;1999.90;;;999.90;;
56307;SDS011;42217;50.422;7.210;2023-07-13T03:03:52;1999.90;;;999.90;;
56307;SDS011;42217;50.422;7.210;2023-07-13T03:06:18;1999.90;;;999.90;;
56307;SDS011;42217;50.422;7.210;2023-07-13T03:08:44;1999.90;;;999.90;;
56307;SDS011;42217;50.422;7.210;2023-07-13T03:11:11;1999.90;;;999.90;;
56307;SDS011;42217;50.422;7.210;2023-07-13T03:13:40;1999.90;;;999.90;;
56307;SDS011;42217;50.422;7.210;2023-07-13T03:16:06;1472.93;;;936.17;;
56307;SDS011;42217;50.422;7.210;2023-07-13T03:18:34;1999.90;;;999.90;;
56307;SDS011;42217;50.422;7.210;2023-07-13T03:21:01;1423.57;;;891.42;;
56307;SDS011;42217;50.422;7.210;2023-07-13T03:23:27;1999.90;;;999.90;;
56307;SDS011;42217;50.422;7.210;2023-07-13T03:26:03;1999.90;;;999.90;;
56307;SDS011;42217;50.422;7.210;2023-07-13T03:28:30;1999.90;;;999.90;;
56307;SDS011;42217;50.422;7.210;2023-07-13T03:31:07;1999.90;;;999.90;;
56307;SDS011;42217;50.422;7.210;2023-07-13T03:33:38;1999.90;;;999.90;;
56307;SDS011;42217;50.422;7.210;2023-07-13T03:36:05;1377.28;;;849.10;;
56307;SDS011;42217;50.422;7.210;2023-07-13T03:38:32;1999.90;;;999.90;;
56307;SDS011;42217;50.422;7.210;2023-07-13T03:40:58;1999.90;;;999.90;;
56307;SDS011;42217;50.422;7.210;2023-07-13T03:43:24;1999.90;;;999.90;;
56307;SDS011;42217;50.422;7.210;2023-07-13T03:45:49;1999.90;;;999.90;;
56307;SDS011;42217;50.422;7.210;2023-07-13T03:48:15;1463.43;;;914.42;;
56307;SDS011;42217;50.422;7.210;2023-07-13T03:50:41;1651.55;;;891.72;;
56307;SDS011;42217;50.422;7.210;2023-07-13T03:53:07;1999.90;;;999.90;;
56307;SDS011;42217;50.422;7.210;2023-07-13T03:55:32;1999.90;;;999.90;;
56307;SDS011;42217;50.422;7.210;2023-07-13T04:00:52;1999.90;;;999.90;;
56307;SDS011;42217;50.422;7.210;2023-07-13T04:03:18;1999.90;;;999.90;;
56307;SDS011;42217;50.422;7.210;2023-07-13T04:05:44;1999.90;;;999.90;;
56307;SDS011;42217;50.422;7.210;2023-07-13T04:08:10;1999.90;;;999.90;;
56307;SDS011;42217;50.422;7.210;2023-07-13T04:10:35;1999.90;;;999.90;;
56307;SDS011;42217;50.422;7.210;2023-07-13T04:13:01;1999.90;;;999.90;;
56307;SDS011;42217;50.422;7.210;2023-07-13T04:15:29;1999.90;;;999.90;;
56307;SDS011;42217;50.422;7.210;2023-07-13T04:17:56;1999.90;;;999.90;;
56307;SDS011;42217;50.422;7.210;2023-07-13T04:20:22;1999.90;;;999.90;;
56307;SDS011;42217;50.422;7.210;2023-07-13T04:22:49;1999.90;;;999.90;;
56307;SDS011;42217;50.422;7.210;2023-07-13T04:25:15;1999.90;;;999.90;;
56307;SDS011;42217;50.422;7.210;2023-07-13T04:27:40;1999.90;;;999.90;;
56307;SDS011;42217;50.422;7.210;2023-07-13T04:30:06;1999.90;;;999.90;;
56307;SDS011;42217;50.422;7.210;2023-07-13T04:32:33;1999.90;;;999.90;;
56307;SDS011;42217;50.422;7.210;2023-07-13T04:34:58;1999.90;;;999.90;;
56307;SDS011;42217;50.422;7.210;2023-07-13T04:37:27;1999.90;;;999.90;;
56307;SDS011;42217;50.422;7.210;2023-07-13T04:39:54;1999.90;;;999.90;;
56307;SDS011;42217;50.422;7.210;2023-07-13T04:42:20;1999.90;;;999.90;;
56307;SDS011;42217;50.422;7.210;2023-07-13T04:44:49;1999.90;;;999.90;;
56307;SDS011;42217;50.422;7.210;2023-07-13T04:47:15;1999.90;;;999.90;;
56307;SDS011;42217;50.422;7.210;2023-07-13T04:49:41;1999.90;;;999.90;;
56307;SDS011;42217;50.422;7.210;2023-07-13T04:52:07;1999.90;;;999.90;;
56307;SDS011;42217;50.422;7.210;2023-07-13T04:54:34;1999.90;;;999.90;;
56307;SDS011;42217;50.422;7.210;2023-07-13T04:57:01;1999.90;;;999.90;;
56307;SDS011;42217;50.422;7.210;2023-07-13T04:59:27;1999.90;;;999.90;;
56307;SDS011;42217;50.422;7.210;2023-07-13T05:01:54;1999.90;;;999.90;;
56307;SDS011;42217;50.422;7.210;2023-07-13T05:04:19;1999.90;;;999.90;;
56307;SDS011;42217;50.422;7.210;2023-07-13T05:06:45;1999.90;;;999.90;;
56307;SDS011;42217;50.422;7.210;2023-07-13T05:09:11;1999.90;;;999.90;;
56307;SDS011;42217;50.422;7.210;2023-07-13T05:11:37;1999.90;;;999.90;;
56307;SDS011;42217;50.422;7.210;2023-07-13T05:14:03;1999.90;;;999.90;;
56307;SDS011;42217;50.422;7.210;2023-07-13T05:16:29;1999.90;;;999.90;;
56307;SDS011;42217;50.422;7.210;2023-07-13T05:18:54;1999.90;;;999.90;;
56307;SDS011;42217;50.422;7.210;2023-07-13T05:21:20;1999.90;;;999.90;;
56307;SDS011;42217;50.422;7.210;2023-07-13T05:23:46;1999.90;;;999.90;;
56307;SDS011;42217;50.422;7.210;2023-07-13T05:26:12;1999.90;;;999.90;;
56307;SDS011;42217;50.422;7.210;2023-07-13T05:28:38;1230.63;;;719.45;;
56307;SDS011;42217;50.422;7.210;2023-07-13T05:31:04;1622.10;;;865.92;;
56307;SDS011;42217;50.422;7.210;2023-07-13T05:33:32;1273.50;;;759.13;;
56307;SDS011;42217;50.422;7.210;2023-07-13T05:35:57;1270.75;;;756.38;;
56307;SDS011;42217;50.422;7.210;2023-07-13T05:38:25;562.65;;;532.88;;
56307;SDS011;42217;50.422;7.210;2023-07-13T05:40:53;528.90;;;501.27;;
56307;SDS011;42217;50.422;7.210;2023-07-13T05:43:20;511.83;;;485.70;;
56307;SDS011;42217;50.422;7.210;2023-07-13T05:45:47;522.10;;;495.25;;
56307;SDS011;42217;50.422;7.210;2023-07-13T05:48:12;885.97;;;615.65;;
56307;SDS011;42217;50.422;7.210;2023-07-13T05:50:38;523.45;;;496.30;;
56307;SDS011;42217;50.422;7.210;2023-07-13T05:53:04;1262.53;;;748.65;;
56307;SDS011;42217;50.422;7.210;2023-07-13T05:55:30;547.53;;;518.20;;
56307;SDS011;42217;50.422;7.210;2023-07-13T05:57:55;550.17;;;520.95;;
56307;SDS011;42217;50.422;7.210;2023-07-13T06:00:23;575.25;;;543.80;;
56307;SDS011;42217;50.422;7.210;2023-07-13T06:02:49;632.22;;;596.70;;
56307;SDS011;42217;50.422;7.210;2023-07-13T06:05:15;649.55;;;612.67;;
56307;SDS011;42217;50.422;7.210;2023-07-13T06:07:41;608.00;;;573.45;;
56307;SDS011;42217;50.422;7.210;2023-07-13T06:10:07;627.60;;;592.72;;
56307;SDS011;42217;50.422;7.210;2023-07-13T06:12:33;604.90;;;571.40;;
56307;SDS011;42217;50.422;7.210;2023-07-13T06:14:59;596.72;;;563.75;;
56307;SDS011;42217;50.422;7.210;2023-07-13T06:17:25;645.25;;;608.03;;
56307;SDS011;42217;50.422;7.210;2023-07-13T06:19:50;686.05;;;645.38;;
56307;SDS011;42217;50.422;7.210;2023-07-13T06:22:16;716.80;;;673.72;;
56307;SDS011;42217;50.422;7.210;2023-07-13T06:24:42;695.78;;;654.45;;
56307;SDS011;42217;50.422;7.210;2023-07-13T06:27:07;664.20;;;626.00;;
56307;SDS011;42217;50.422;7.210;2023-07-13T06:29:33;669.70;;;630.70;;
56307;SDS011;42217;50.422;7.210;2023-07-13T06:31:59;629.83;;;593.72;;
56307;SDS011;42217;50.422;7.210;2023-07-13T06:34:24;646.63;;;608.97;;
56307;SDS011;42217;50.422;7.210;2023-07-13T06:36:50;630.42;;;594.33;;
56307;SDS011;42217;50.422;7.210;2023-07-13T06:39:16;599.58;;;566.70;;
56307;SDS011;42217;50.422;7.210;2023-07-13T06:41:42;566.55;;;536.00;;
56307;SDS011;42217;50.422;7.210;2023-07-13T06:44:07;579.25;;;547.50;;
56307;SDS011;42217;50.422;7.210;2023-07-13T06:46:33;515.03;;;487.85;;
56307;SDS011;42217;50.422;7.210;2023-07-13T06:48:59;451.13;;;428.17;;
56307;SDS011;42217;50.422;7.210;2023-07-13T06:51:25;429.27;;;407.58;;
56307;SDS011;42217;50.422;7.210;2023-07-13T06:53:51;453.13;;;429.10;;
56307;SDS011;42217;50.422;7.210;2023-07-13T06:56:17;449.17;;;426.75;;
56307;SDS011;42217;50.422;7.210;2023-07-13T06:58:42;419.80;;;398.88;;
56307;SDS011;42217;50.422;7.210;2023-07-13T07:01:08;416.13;;;395.80;;
56307;SDS011;42217;50.422;7.210;2023-07-13T07:03:34;439.73;;;417.65;;
56307;SDS011;42217;50.422;7.210;2023-07-13T07:06:01;527.55;;;499.30;;
56307;SDS011;42217;50.422;7.210;2023-07-13T07:08:31;515.72;;;487.95;;
56307;SDS011;42217;50.422;7.210;2023-07-13T07:10:57;517.75;;;490.20;;
56307;SDS011;42217;50.422;7.210;2023-07-13T07:13:23;462.40;;;438.77;;
56307;SDS011;42217;50.422;7.210;2023-07-13T07:15:49;453.20;;;430.23;;
56307;SDS011;42217;50.422;7.210;2023-07-13T07:18:16;653.88;;;614.10;;
56307;SDS011;42217;50.422;7.210;2023-07-13T07:20:41;470.95;;;446.25;;
56307;SDS011;42217;50.422;7.210;2023-07-13T07:23:07;780.28;;;726.97;;
56307;SDS011;42217;50.422;7.210;2023-07-13T07:25:33;479.63;;;455.42;;
56307;SDS011;42217;50.422;7.210;2023-07-13T07:28:02;503.00;;;476.20;;
56307;SDS011;42217;50.422;7.210;2023-07-13T07:30:28;591.55;;;556.65;;
56307;SDS011;42217;50.422;7.210;2023-07-13T07:32:53;436.20;;;414.38;;
56307;SDS011;42217;50.422;7.210;2023-07-13T07:35:19;483.98;;;458.58;;
56307;SDS011;42217;50.422;7.210;2023-07-13T07:37:45;515.15;;;487.88;;
56307;SDS011;42217;50.422;7.210;2023-07-13T07:40:11;481.23;;;456.75;;
56307;SDS011;42217;50.422;7.210;2023-07-13T07:42:37;562.55;;;531.10;;
56307;SDS011;42217;50.422;7.210;2023-07-13T07:45:02;499.27;;;472.83;;
56307;SDS011;42217;50.422;7.210;2023-07-13T07:47:28;501.92;;;475.35;;
56307;SDS011;42217;50.422;7.210;2023-07-13T07:49:54;703.95;;;660.42;;
56307;SDS011;42217;50.422;7.210;2023-07-13T07:52:20;699.03;;;654.65;;
56307;SDS011;42217;50.422;7.210;2023-07-13T07:54:46;507.30;;;480.95;;
56307;SDS011;42217;50.422;7.210;2023-07-13T07:57:11;526.40;;;497.90;;
56307;SDS011;42217;50.422;7.210;2023-07-13T07:59:37;691.63;;;647.00;;
56307;SDS011;42217;50.422;7.210;2023-07-13T08:02:03;749.60;;;699.90;;
56307;SDS011;42217;50.422;7.210;2023-07-13T08:04:29;545.65;;;516.10;;
56307;SDS011;42217;50.422;7.210;2023-07-13T08:06:54;663.38;;;622.85;;
56307;SDS011;42217;50.422;7.210;2023-07-13T08:09:21;546.65;;;517.28;;
56307;SDS011;42217;50.422;7.210;2023-07-13T08:11:47;580.13;;;547.90;;
56307;SDS011;42217;50.422;7.210;2023-07-13T08:14:13;525.25;;;496.98;;
56307;SDS011;42217;50.422;7.210;2023-07-13T08:16:39;584.55;;;552.35;;
56307;SDS011;42217;50.422;7.210;2023-07-13T08:19:05;767.70;;;717.38;;
56307;SDS011;42217;50.422;7.210;2023-07-13T08:21:31;573.42;;;541.60;;
56307;SDS011;42217;50.422;7.210;2023-07-13T08:23:57;618.33;;;582.90;;
56307;SDS011;42217;50.422;7.210;2023-07-13T08:26:22;571.63;;;540.60;;
56307;SDS011;42217;50.422;7.210;2023-07-13T08:28:48;567.88;;;536.67;;
56307;SDS011;42217;50.422;7.210;2023-07-13T08:31:14;632.60;;;596.00;;
56307;SDS011;42217;50.422;7.210;2023-07-13T08:33:40;581.20;;;548.72;;
56307;SDS011;42217;50.422;7.210;2023-07-13T08:36:06;779.88;;;725.92;;
56307;SDS011;42217;50.422;7.210;2023-07-13T08:38:32;578.55;;;545.35;;
56307;SDS011;42217;50.422;7.210;2023-07-13T08:40:58;559.90;;;529.22;;
56307;SDS011;42217;50.422;7.210;2023-07-13T08:43:30;658.65;;;616.30;;
56307;SDS011;42217;50.422;7.210;2023-07-13T08:49:19;878.10;;;816.13;;
56307;SDS011;42217;50.422;7.210;2023-07-13T08:54:22;647.97;;;608.55;;
56307;SDS011;42217;50.422;7.210;2023-07-13T08:56:48;702.22;;;656.60;;
56307;SDS011;42217;50.422;7.210;2023-07-13T08:59:18;580.63;;;547.15;;
56307;SDS011;42217;50.422;7.210;2023-07-13T09:04:34;513.53;;;484.52;;
56307;SDS011;42217;50.422;7.210;2023-07-13T09:09:39;536.53;;;506.10;;
56307;SDS011;42217;50.422;7.210;2023-07-13T09:14:44;961.05;;;885.03;;
56307;SDS011;42217;50.422;7.210;2023-07-13T09:17:20;648.55;;;607.78;;
56307;SDS011;42217;50.422;7.210;2023-07-13T09:19:49;544.03;;;512.85;;
56307;SDS011;42217;50.422;7.210;2023-07-13T09:22:21;532.67;;;502.58;;
56307;SDS011;42217;50.422;7.210;2023-07-13T09:27:51;650.03;;;610.05;;
56307;SDS011;42217;50.422;7.210;2023-07-13T09:30:30;597.10;;;561.55;;
56307;SDS011;42217;50.422;7.210;2023-07-13T09:33:03;548.20;;;516.05;;
56307;SDS011;42217;50.422;7.210;2023-07-13T09:35:29;556.35;;;524.60;;
56307;SDS011;42217;50.422;7.210;2023-07-13T09:38:02;534.90;;;504.38;;
56307;SDS011;42217;50.422;7.210;2023-07-13T09:40:44;526.10;;;495.90;;
56307;SDS011;42217;50.422;7.210;2023-07-13T09:43:13;652.08;;;610.72;;
56307;SDS011;42217;50.422;7.210;2023-07-13T09:45:42;654.00;;;612.58;;
56307;SDS011;42217;50.422;7.210;2023-07-13T09:48:12;776.15;;;721.80;;
56307;SDS011;42217;50.422;7.210;2023-07-13T09:50:39;718.78;;;670.90;;
56307;SDS011;42217;50.422;7.210;2023-07-13T09:53:11;680.78;;;636.28;;
56307;SDS011;42217;50.422;7.210;2023-07-13T09:55:39;752.55;;;701.97;;
56307;SDS011;42217;50.422;7.210;2023-07-13T10:00:40;619.92;;;582.35;;
56307;SDS011;42217;50.422;7.210;2023-07-13T10:03:19;562.03;;;528.38;;
56307;SDS011;42217;50.422;7.210;2023-07-13T10:05:49;703.55;;;657.80;;
56307;SDS011;42217;50.422;7.210;2023-07-13T10:10:43;566.58;;;533.15;;
56307;SDS011;42217;50.422;7.210;2023-07-13T10:16:09;540.67;;;510.05;;
56307;SDS011;42217;50.422;7.210;2023-07-13T10:21:17;504.65;;;476.88;;
56307;SDS011;42217;50.422;7.210;2023-07-13T10:23:57;489.08;;;462.17;;
56307;SDS011;42217;50.422;7.210;2023-07-13T10:26:46;530.97;;;500.48;;
56307;SDS011;42217;50.422;7.210;2023-07-13T10:29:35;620.55;;;582.22;;
56307;SDS011;42217;50.422;7.210;2023-07-13T10:32:08;649.30;;;608.78;;
56307;SDS011;42217;50.422;7.210;2023-07-13T10:34:36;555.80;;;522.92;;
56307;SDS011;42217;50.422;7.210;2023-07-13T10:37:01;610.10;;;572.63;;
56307;SDS011;42217;50.422;7.210;2023-07-13T10:39:28;579.20;;;544.20;;
56307;SDS011;42217;50.422;7.210;2023-07-13T10:41:59;743.83;;;693.90;;
56307;SDS011;42217;50.422;7.210;2023-07-13T10:44:29;746.22;;;696.88;;
56307;SDS011;42217;50.422;7.210;2023-07-13T10:47:07;665.10;;;622.20;;
56307;SDS011;42217;50.422;7.210;2023-07-13T10:49:38;697.35;;;652.25;;
56307;SDS011;42217;50.422;7.210;2023-07-13T10:52:05;548.05;;;515.72;;
56307;SDS011;42217;50.422;7.210;2023-07-13T10:57:17;701.10;;;656.50;;
56307;SDS011;42217;50.422;7.210;2023-07-13T11:02:35;714.50;;;668.38;;
56307;SDS011;42217;50.422;7.210;2023-07-13T11:05:12;658.28;;;616.88;;
56307;SDS011;42217;50.422;7.210;2023-07-13T11:21:27;535.17;;;504.30;;
56307;SDS011;42217;50.422;7.210;2023-07-13T11:24:03;602.55;;;566.17;;
56307;SDS011;42217;50.422;7.210;2023-07-13T11:29:08;488.55;;;461.33;;
56307;SDS011;42217;50.422;7.210;2023-07-13T11:31:40;636.88;;;596.25;;
56307;SDS011;42217;50.422;7.210;2023-07-13T11:34:12;697.45;;;652.05;;
56307;SDS011;42217;50.422;7.210;2023-07-13T11:36:42;607.33;;;569.58;;
56307;SDS011;42217;50.422;7.210;2023-07-13T11:41:48;514.40;;;485.13;;
56307;SDS011;42217;50.422;7.210;2023-07-13T11:44:21;551.20;;;518.72;;
56307;SDS011;42217;50.422;7.210;2023-07-13T11:46:59;476.83;;;450.23;;
56307;SDS011;42217;50.422;7.210;2023-07-13T11:49:38;450.15;;;425.60;;
56307;SDS011;42217;50.422;7.210;2023-07-13T11:52:16;532.55;;;501.48;;
56307;SDS011;42217;50.422;7.210;2023-07-13T11:54:53;486.83;;;459.23;;
56307;SDS011;42217;50.422;7.210;2023-07-13T11:57:23;537.80;;;505.60;;
56307;SDS011;42217;50.422;7.210;2023-07-13T11:59:49;462.00;;;435.95;;
56307;SDS011;42217;50.422;7.210;2023-07-13T12:02:28;475.15;;;448.27;;
56307;SDS011;42217;50.422;7.210;2023-07-13T12:04:56;520.85;;;491.10;;
56307;SDS011;42217;50.422;7.210;2023-07-13T12:07:23;523.30;;;493.45;;
56307;SDS011;42217;50.422;7.210;2023-07-13T12:09:49;758.67;;;706.05;;
56307;SDS011;42217;50.422;7.210;2023-07-13T12:12:18;647.45;;;607.25;;
56307;SDS011;42217;50.422;7.210;2023-07-13T12:14:46;597.75;;;562.20;;
56307;SDS011;42217;50.422;7.210;2023-07-13T12:17:18;589.13;;;552.92;;
56307;SDS011;42217;50.422;7.210;2023-07-13T12:19:46;569.45;;;535.72;;
56307;SDS011;42217;50.422;7.210;2023-07-13T12:22:13;603.80;;;567.40;;
56307;SDS011;42217;50.422;7.210;2023-07-13T12:24:40;457.52;;;432.40;;
56307;SDS011;42217;50.422;7.210;2023-07-13T12:27:15;558.15;;;525.22;;
56307;SDS011;42217;50.422;7.210;2023-07-13T12:29:49;591.53;;;555.80;;
56307;SDS011;42217;50.422;7.210;2023-07-13T12:32:18;571.50;;;537.63;;
56307;SDS011;42217;50.422;7.210;2023-07-13T12:34:54;515.67;;;486.77;;
56307;SDS011;42217;50.422;7.210;2023-07-13T12:37:22;453.80;;;429.83;;
56307;SDS011;42217;50.422;7.210;2023-07-13T12:39:49;540.92;;;509.92;;
56307;SDS011;42217;50.422;7.210;2023-07-13T12:47:25;443.48;;;419.15;;
56307;SDS011;42217;50.422;7.210;2023-07-13T12:49:57;510.85;;;481.63;;
56307;SDS011;42217;50.422;7.210;2023-07-13T12:52:31;561.58;;;527.67;;
56307;SDS011;42217;50.422;7.210;2023-07-13T12:55:01;465.75;;;439.80;;
56307;SDS011;42217;50.422;7.210;2023-07-13T12:59:56;511.52;;;481.60;;
56307;SDS011;42217;50.422;7.210;2023-07-13T13:02:29;521.00;;;490.85;;
56307;SDS011;42217;50.422;7.210;2023-07-13T13:04:56;487.73;;;459.92;;
56307;SDS011;42217;50.422;7.210;2023-07-13T13:07:23;348.77;;;330.63;;
56307;SDS011;42217;50.422;7.210;2023-07-13T13:09:49;327.77;;;311.15;;
56307;SDS011;42217;50.422;7.210;2023-07-13T13:12:15;367.65;;;348.00;;
56307;SDS011;42217;50.422;7.210;2023-07-13T13:14:42;415.92;;;392.75;;
56307;SDS011;42217;50.422;7.210;2023-07-13T13:17:22;553.75;;;521.17;;
56307;SDS011;42217;50.422;7.210;2023-07-13T13:19:50;402.70;;;380.75;;
56307;SDS011;42217;50.422;7.210;2023-07-13T13:22:19;553.10;;;521.08;;
56307;SDS011;42217;50.422;7.210;2023-07-13T13:24:45;442.13;;;418.40;;
56307;SDS011;42217;50.422;7.210;2023-07-13T13:27:15;393.35;;;373.05;;
56307;SDS011;42217;50.422;7.210;2023-07-13T13:29:43;436.33;;;413.10;;
56307;SDS011;42217;50.422;7.210;2023-07-13T13:32:13;522.05;;;492.73;;
56307;SDS011;42217;50.422;7.210;2023-07-13T13:34:40;436.08;;;413.23;;
56307;SDS011;42217;50.422;7.210;2023-07-13T13:37:39;441.02;;;417.98;;
56307;SDS011;42217;50.422;7.210;2023-07-13T13:39:58;534.30;;;503.52;;
56307;SDS011;42217;50.422;7.210;2023-07-13T13:42:23;489.77;;;462.73;;
56307;SDS011;42217;50.422;7.210;2023-07-13T13:44:51;442.45;;;419.20;;
56307;SDS011;42217;50.422;7.210;2023-07-13T13:47:21;453.20;;;429.15;;
56307;SDS011;42217;50.422;7.210;2023-07-13T13:49:54;423.38;;;401.75;;
56307;SDS011;42217;50.422;7.210;2023-07-13T13:52:20;527.58;;;497.00;;
56307;SDS011;42217;50.422;7.210;2023-07-13T13:54:45;448.42;;;424.58;;
56307;SDS011;42217;50.422;7.210;2023-07-13T13:57:11;394.10;;;374.23;;
56307;SDS011;42217;50.422;7.210;2023-07-13T13:59:37;507.13;;;479.02;;
56307;SDS011;42217;50.422;7.210;2023-07-13T14:02:09;508.85;;;480.58;;
56307;SDS011;42217;50.422;7.210;2023-07-13T14:04:56;522.42;;;492.20;;
56307;SDS011;42217;50.422;7.210;2023-07-13T14:09:50;421.95;;;399.15;;
56307;SDS011;42217;50.422;7.210;2023-07-13T14:12:17;432.98;;;409.55;;
56307;SDS011;42217;50.422;7.210;2023-07-13T14:14:43;354.20;;;335.48;;
56307;SDS011;42217;50.422;7.210;2023-07-13T14:17:30;473.92;;;446.92;;
56307;SDS011;42217;50.422;7.210;2023-07-13T14:19:56;326.88;;;310.65;;
56307;SDS011;42217;50.422;7.210;2023-07-13T14:22:25;352.75;;;334.95;;
56307;SDS011;42217;50.422;7.210;2023-07-13T14:24:52;392.25;;;371.88;;
56307;SDS011;42217;50.422;7.210;2023-07-13T14:27:19;398.88;;;378.30;;
56307;SDS011;42217;50.422;7.210;2023-07-13T14:29:44;426.83;;;404.40;;
56307;SDS011;42217;50.422;7.210;2023-07-13T14:32:11;423.02;;;400.98;;
56307;SDS011;42217;50.422;7.210;2023-07-13T14:34:37;392.17;;;372.67;;
56307;SDS011;42217;50.422;7.210;2023-07-13T14:37:04;588.45;;;551.85;;
56307;SDS011;42217;50.422;7.210;2023-07-13T14:39:30;417.63;;;396.65;;
56307;SDS011;42217;50.422;7.210;2023-07-13T14:41:57;401.75;;;381.77;;
56307;SDS011;42217;50.422;7.210;2023-07-13T14:44:29;404.00;;;383.58;;
56307;SDS011;42217;50.422;7.210;2023-07-13T14:46:59;395.20;;;374.90;;
56307;SDS011;42217;50.422;7.210;2023-07-13T14:49:39;417.75;;;396.00;;
56307;SDS011;42217;50.422;7.210;2023-07-13T14:52:16;393.08;;;373.20;;
56307;SDS011;42217;50.422;7.210;2023-07-13T14:54:45;364.63;;;346.58;;
56307;SDS011;42217;50.422;7.210;2023-07-13T14:57:11;620.70;;;582.47;;
56307;SDS011;42217;50.422;7.210;2023-07-13T14:59:38;343.85;;;326.52;;